Tasman Crusader — A8NQ7 — position and weather

sailwx.info

Track history (hours):
 
Tides and Currents Weather Stations Pressure Air Temp Water Temp Dewpoint Dewpoint Depression Visibility Wind Speed Wind Dir Waves Ship Positions

Tasman Crusader

Last reported at 2016-Aug-24 17:33 UTC. Time now 2016-Aug-24 18:00 UTC.
Position N 31°48' W 118°54'.

Length 186 m; draft 9.4 m.

Type: Ship (hazmat cat D). MMSI: 636091434.

Date/timePositionNaut miles runAvg speedWind from/ knotsBaromVisibWave heightAir tempDewpointWater temp
2016-Aug-24 17:33N 31°48' W 118°54'1616.4
2016-Aug-24 16:33N 32°01' W 119°05'1616.3
2016-Aug-24 15:33N 32°14' W 119°17'1616.2
2016-Aug-24 14:33N 32°27' W 119°28'2116.2
2016-Aug-24 13:15N 32°45' W 119°43'1216.9
2016-Aug-24 12:31N 32°55' W 119°52'1616.6
2016-Aug-24 11:33N 33°08' W 120°03'1615.9
2016-Aug-24 10:33N 33°20' W 120°14'1716.5
2016-Aug-24 09:33N 33°34' W 120°26'1616.5
2016-Aug-24 08:33N 33°47' W 120°37'1616.2
2016-Aug-24 07:33N 33°60' W 120°49'1616.2
2016-Aug-24 06:33N 34°13' W 121°00'3316.4
2016-Aug-24 04:32N 34°42' W 121°21'1616.3
2016-Aug-24 03:33N 34°56' W 121°30'1716.8
2016-Aug-24 02:33N 35°11' W 121°39'1716.8
2016-Aug-24 01:33N 35°26' W 121°48'1716.6
2016-Aug-24 00:33N 35°41' W 121°57'713.2
2016-Aug-24 00:00N 35°48' W 122°00'920.4 300 / 121018.810.8 0.517.115.6
2016-Aug-23 23:33N 35°56' W 122°05'1616.2
2016-Aug-23 22:33N 36°10' W 122°14'1716.7
2016-Aug-23 21:33N 36°26' W 122°22'1616.5
2016-Aug-23 20:33N 36°41' W 122°30'1716.7
2016-Aug-23 19:33N 36°57' W 122°37'1616.4
2016-Aug-23 18:33N 37°12' W 122°44'1111.5
2016-Aug-23 17:34N 37°24' W 122°44'10 9.9
2016-Aug-23 16:34N 37°34' W 122°44'10 9.5
2016-Aug-23 15:34N 37°43' W 122°41'1212.3
2016-Aug-23 14:33N 37°50' W 122°28'8 7.8
2016-Aug-23 13:32N 37°48' W 122°18'0 0.1
2016-Aug-23 12:32N 37°48' W 122°19'0 0.0
2016-Aug-23 11:32N 37°48' W 122°19'0 0.0
2016-Aug-23 10:33N 37°48' W 122°19'0 0.0
2016-Aug-23 09:33N 37°48' W 122°19'0 0.0
2016-Aug-23 08:32N 37°48' W 122°19'0 0.0
2016-Aug-23 07:32N 37°48' W 122°19'0 0.0
2016-Aug-23 06:32N 37°48' W 122°19'0 0.0
2016-Aug-23 05:32N 37°48' W 122°19'0 0.0
2016-Aug-23 04:32N 37°48' W 122°19'0 0.0
2016-Aug-23 03:33N 37°48' W 122°19'0 0.0
2016-Aug-23 02:32N 37°48' W 122°19'0 0.0
2016-Aug-23 01:32N 37°48' W 122°19'0 0.0
2016-Aug-23 00:32N 37°48' W 122°19'0 0.0
2016-Aug-22 23:33N 37°48' W 122°19'0 0.4
2016-Aug-22 22:33N 37°48' W 122°19'1110.8
2016-Aug-22 21:33N 37°47' W 122°33'10 9.6
2016-Aug-22 20:34N 37°40' W 122°40'7 6.9
2016-Aug-22 19:34N 37°33' W 122°40'9 9.1
2016-Aug-22 18:34N 37°24' W 122°40'10 9.8
2016-Aug-22 17:33N 37°14' W 122°40'10 9.9
2016-Aug-22 16:33N 37°04' W 122°38'1010.2
2016-Aug-22 15:33N 36°55' W 122°33'1010.3
2016-Aug-22 14:33N 36°45' W 122°28'1010.1
2016-Aug-22 13:33N 36°36' W 122°24'10 9.7
2016-Aug-22 12:30N 36°26' W 122°19'910.0
2016-Aug-22 11:34N 36°18' W 122°15'1010.0
2016-Aug-22 10:32N 36°09' W 122°08'1010.2
2016-Aug-22 09:33N 36°00' W 122°02'1010.0
2016-Aug-22 08:34N 35°52' W 121°55'10 9.7
2016-Aug-22 07:34N 35°44' W 121°49'1010.0
2016-Aug-22 06:34N 35°35' W 121°43'10 9.6
2016-Aug-22 05:34N 35°27' W 121°37'9 9.4
2016-Aug-22 04:34N 35°19' W 121°31'10 9.7
2016-Aug-22 03:34N 35°11' W 121°24'8 7.9
2016-Aug-22 02:33N 35°04' W 121°19'5 5.5
2016-Aug-22 01:33N 34°59' W 121°16'5 5.4
2016-Aug-22 00:34N 34°54' W 121°13'814.7
2016-Aug-22 00:00N 34°48' W 121°06'3 6.8 350 / 121014.310.8 0.517.115.6
2016-Aug-21 23:33N 34°50' W 121°09'12 6.1
2016-Aug-21 21:31N 34°39' W 121°01'7 6.3
2016-Aug-21 20:28N 34°33' W 120°57'7 6.8
2016-Aug-21 19:29N 34°28' W 120°53'7 6.5
2016-Aug-21 18:22N 34°25' W 120°45'2 6.7
2016-Aug-21 18:00N 34°24' W 120°42'4 6.1 320 / 161015.010.8 0.517.015.3
2016-Aug-21 17:24N 34°23' W 120°38'5 6.0
2016-Aug-21 16:33N 34°22' W 120°32'6 6.1
2016-Aug-21 15:31N 34°20' W 120°25'8 8.1
2016-Aug-21 14:34N 34°18' W 120°15'10 9.7
2016-Aug-21 13:33N 34°16' W 120°04'10 9.5
2016-Aug-21 12:33N 34°13' W 119°53'9 8.6
2016-Aug-21 11:34N 34°11' W 119°43'9 9.5
2016-Aug-21 10:33N 34°08' W 119°32'10 9.7
2016-Aug-21 09:33N 34°05' W 119°21'10 9.8
2016-Aug-21 08:33N 34°02' W 119°10'9 9.4
2016-Aug-21 07:33N 33°57' W 118°60'9 9.3
2016-Aug-21 06:34N 33°52' W 118°50'9 8.9
2016-Aug-21 05:34N 33°48' W 118°41'9 9.2
2016-Aug-21 04:34N 33°43' W 118°31'10 9.8
2016-Aug-21 03:34N 33°38' W 118°21'7 7.3
2016-Aug-21 02:34N 33°39' W 118°13'6 6.0
2016-Aug-21 01:34N 33°45' W 118°13'1 1.2
2016-Aug-21 00:32N 33°46' W 118°14'0 0.0
2016-Aug-20 23:29N 33°46' W 118°14'0 0.0
2016-Aug-20 22:32N 33°46' W 118°14'0 0.0
2016-Aug-20 21:32N 33°46' W 118°14'0 0.0
2016-Aug-20 20:32N 33°46' W 118°14'0 0.0
2016-Aug-20 19:32N 33°46' W 118°14'0 0.0
2016-Aug-20 18:29N 33°46' W 118°14'0 0.0
2016-Aug-20 17:32N 33°46' W 118°14'0 0.0
2016-Aug-20 16:32N 33°46' W 118°14'0 0.0
2016-Aug-20 15:32N 33°46' W 118°14'0 0.0
2016-Aug-20 14:32N 33°46' W 118°14'0 0.0
2016-Aug-20 13:32N 33°46' W 118°14'0 0.0
2016-Aug-20 12:32N 33°46' W 118°14'0 0.0
2016-Aug-20 11:29N 33°46' W 118°14'0 0.0
2016-Aug-20 10:32N 33°46' W 118°14'0 0.0
2016-Aug-20 09:32N 33°46' W 118°14'0 0.0
2016-Aug-20 08:29N 33°46' W 118°14'0 0.2
2016-Aug-20 07:34N 33°46' W 118°14'6 5.7
2016-Aug-20 06:33N 33°41' W 118°11'9 8.6
2016-Aug-20 05:33N 33°36' W 118°19'1010.0
2016-Aug-20 04:33N 33°40' W 118°30'1010.4
2016-Aug-20 03:33N 33°46' W 118°41'1110.6
2016-Aug-20 02:33N 33°51' W 118°52'1111.2
2016-Aug-20 01:33N 33°56' W 119°04'1111.2
2016-Aug-20 00:33N 34°02' W 119°15'7 6.6
2016-Aug-19 23:29N 34°09' W 119°12'0 0.0
2016-Aug-19 22:23N 34°09' W 119°12'0 0.0
2016-Aug-19 20:08N 34°09' W 119°12'0 0.0
2016-Aug-19 19:29N 34°09' W 119°12'0 0.0
2016-Aug-19 10:20N 34°09' W 119°12'0 0.1
2016-Aug-19 09:23N 34°09' W 119°12'0 0.0
2016-Aug-19 08:32N 34°09' W 119°12'0 0.0
2016-Aug-19 07:17N 34°09' W 119°12'0 0.0
2016-Aug-19 06:29N 34°09' W 119°12'0 0.0
2016-Aug-19 05:32N 34°09' W 119°12'0 0.0
2016-Aug-19 04:29N 34°09' W 119°12'0 0.0
2016-Aug-19 01:11N 34°09' W 119°12'0 0.0
2016-Aug-19 00:23N 34°09' W 119°12'0 0.0
2016-Aug-18 23:29N 34°09' W 119°12'0 0.0
2016-Aug-18 22:11N 34°09' W 119°12'0 0.0
2016-Aug-18 20:08N 34°09' W 119°12'0 0.0
2016-Aug-18 19:32N 34°09' W 119°12'0 0.0
2016-Aug-18 18:23N 34°09' W 119°12'0 0.0
2016-Aug-18 17:23N 34°09' W 119°12'0 0.0
2016-Aug-18 16:33N 34°09' W 119°12'0 0.0
2016-Aug-18 15:32N 34°09' W 119°12'0 0.0
2016-Aug-18 14:23N 34°09' W 119°12'0 0.0
2016-Aug-18 13:29N 34°09' W 119°12'0 0.0
2016-Aug-18 11:23N 34°09' W 119°12'0 0.0
2016-Aug-18 10:26N 34°09' W 119°12'0 0.0
2016-Aug-18 09:29N 34°09' W 119°12'0 0.0
2016-Aug-18 08:29N 34°09' W 119°12'0 0.0
2016-Aug-18 07:32N 34°09' W 119°12'0 0.0
2016-Aug-18 06:26N 34°09' W 119°12'0 0.0
2016-Aug-18 05:32N 34°09' W 119°12'0 0.0
2016-Aug-18 04:23N 34°09' W 119°12'0 0.0
2016-Aug-18 03:26N 34°09' W 119°12'0 0.0
2016-Aug-18 02:33N 34°09' W 119°12'0 0.0
2016-Aug-18 01:26N 34°09' W 119°12'0 0.0
2016-Aug-18 00:32N 34°09' W 119°12'0 0.0
2016-Aug-17 23:32N 34°09' W 119°12'6 6.1
2016-Aug-17 22:33N 34°03' W 119°12'1313.2
2016-Aug-17 21:33N 33°56' W 118°58'1212.2
2016-Aug-17 20:33N 33°50' W 118°45'1211.8
2016-Aug-17 19:33N 33°44' W 118°33'1211.9
2016-Aug-17 18:33N 33°38' W 118°21'1110.8
2016-Aug-17 17:33N 33°34' W 118°09'1212.3
2016-Aug-17 16:33N 33°22' W 118°04'1212.1
2016-Aug-17 15:33N 33°11' W 117°59'9 8.9
2016-Aug-17 14:32N 33°03' W 117°54'1111.7
2016-Aug-17 13:34N 32°52' W 117°50'1413.7
2016-Aug-17 12:33N 32°39' W 117°44'1120.3
2016-Aug-17 12:00N 32°30' W 117°36'511.7 030 / 61011.610.8 0.519.718.4
2016-Aug-17 11:33N 32°26' W 117°40'1413.8
2016-Aug-17 10:33N 32°13' W 117°35'1413.9
2016-Aug-17 09:33N 32°00' W 117°29'1313.4
2016-Aug-17 08:33N 31°47' W 117°23'1313.4
2016-Aug-17 07:33N 31°35' W 117°18'1313.2
2016-Aug-17 06:33N 31°22' W 117°13'1221.1
2016-Aug-17 06:00N 31°12' W 117°06'3 6.3 010 / 81011.010.8 0.520.018.4
2016-Aug-17 05:33N 31°10' W 117°08'1312.7
2016-Aug-17 04:33N 30°58' W 117°03'1313.1
2016-Aug-17 03:33N 30°46' W 116°58'1313.5
2016-Aug-17 02:33N 30°33' W 116°52'1413.6
2016-Aug-17 01:33N 30°20' W 116°47'1313.4
2016-Aug-17 00:33N 30°08' W 116°42'1312.9
2016-Aug-16 23:33N 29°55' W 116°37'1313.1
2016-Aug-16 22:33N 29°43' W 116°32'7114.2
2016-Aug-16 17:33N 28°36' W 116°03'9115.2
2016-Aug-16 11:33N 27°16' W 115°14'17615.2
2016-Aug-16 00:00N 24°54' W 113°18'8914.9 100 / 41009.810.8 0.526.124.8
2016-Aug-15 18:00N 23°48' W 112°12'9716.2 340 / 81013.010.8 0.525.025.0
2016-Aug-15 12:00N 22°42' W 110°54'8714.4 330 / 121011.610.8 0.526.124.8
2016-Aug-15 06:00N 21°54' W 109°36'9015.1 050 / 141012.010.8 1.026.026.0
2016-Aug-15 00:00N 21°00' W 108°18'   320 / 121009.810.8 1.028.827.6
Track history (hours):
 
Tides and Currents Weather Stations Pressure Air Temp Water Temp Dewpoint Dewpoint Depression Visibility Wind Speed Wind Dir Waves Ship Positions

Tasman Crusader

Last reported at 2016-Aug-24 17:33 UTC. Time now 2016-Aug-24 18:00 UTC.
Position N 31°48' W 118°54'.

Length 186 m; draft 9.4 m.

Type: Ship (hazmat cat D). MMSI: 636091434.

Date/timePositionNaut miles runAvg speedWind from/ knotsBaromVisibWave heightAir tempDewpointWater temp
2016-Aug-24 17:33N 31°48' W 118°54'1616.4
2016-Aug-24 16:33N 32°01' W 119°05'1616.3
2016-Aug-24 15:33N 32°14' W 119°17'1616.2
2016-Aug-24 14:33N 32°27' W 119°28'2116.2
2016-Aug-24 13:15N 32°45' W 119°43'1216.9
2016-Aug-24 12:31N 32°55' W 119°52'1616.6
2016-Aug-24 11:33N 33°08' W 120°03'1615.9
2016-Aug-24 10:33N 33°20' W 120°14'1716.5
2016-Aug-24 09:33N 33°34' W 120°26'1616.5
2016-Aug-24 08:33N 33°47' W 120°37'1616.2
2016-Aug-24 07:33N 33°60' W 120°49'1616.2
2016-Aug-24 06:33N 34°13' W 121°00'3316.4
2016-Aug-24 04:32N 34°42' W 121°21'1616.3
2016-Aug-24 03:33N 34°56' W 121°30'1716.8
2016-Aug-24 02:33N 35°11' W 121°39'1716.8
2016-Aug-24 01:33N 35°26' W 121°48'1716.6
2016-Aug-24 00:33N 35°41' W 121°57'713.2
2016-Aug-24 00:00N 35°48' W 122°00'920.4 300 / 121018.810.8 0.517.115.6
2016-Aug-23 23:33N 35°56' W 122°05'1616.2
2016-Aug-23 22:33N 36°10' W 122°14'1716.7
2016-Aug-23 21:33N 36°26' W 122°22'1616.5
2016-Aug-23 20:33N 36°41' W 122°30'1716.7
2016-Aug-23 19:33N 36°57' W 122°37'1616.4
2016-Aug-23 18:33N 37°12' W 122°44'1111.5
2016-Aug-23 17:34N 37°24' W 122°44'10 9.9
2016-Aug-23 16:34N 37°34' W 122°44'10 9.5
2016-Aug-23 15:34N 37°43' W 122°41'1212.3
2016-Aug-23 14:33N 37°50' W 122°28'8 7.8
2016-Aug-23 13:32N 37°48' W 122°18'0 0.1
2016-Aug-23 12:32N 37°48' W 122°19'0 0.0
2016-Aug-23 11:32N 37°48' W 122°19'0 0.0
2016-Aug-23 10:33N 37°48' W 122°19'0 0.0
2016-Aug-23 09:33N 37°48' W 122°19'0 0.0
2016-Aug-23 08:32N 37°48' W 122°19'0 0.0
2016-Aug-23 07:32N 37°48' W 122°19'0 0.0
2016-Aug-23 06:32N 37°48' W 122°19'0 0.0
2016-Aug-23 05:32N 37°48' W 122°19'0 0.0
2016-Aug-23 04:32N 37°48' W 122°19'0 0.0
2016-Aug-23 03:33N 37°48' W 122°19'0 0.0
2016-Aug-23 02:32N 37°48' W 122°19'0 0.0
2016-Aug-23 01:32N 37°48' W 122°19'0 0.0
2016-Aug-23 00:32N 37°48' W 122°19'0 0.0
2016-Aug-22 23:33N 37°48' W 122°19'0 0.4
2016-Aug-22 22:33N 37°48' W 122°19'1110.8
2016-Aug-22 21:33N 37°47' W 122°33'10 9.6
2016-Aug-22 20:34N 37°40' W 122°40'7 6.9
2016-Aug-22 19:34N 37°33' W 122°40'9 9.1
2016-Aug-22 18:34N 37°24' W 122°40'10 9.8
2016-Aug-22 17:33N 37°14' W 122°40'10 9.9
2016-Aug-22 16:33N 37°04' W 122°38'1010.2
2016-Aug-22 15:33N 36°55' W 122°33'1010.3
2016-Aug-22 14:33N 36°45' W 122°28'1010.1
2016-Aug-22 13:33N 36°36' W 122°24'10 9.7
2016-Aug-22 12:30N 36°26' W 122°19'910.0
2016-Aug-22 11:34N 36°18' W 122°15'1010.0
2016-Aug-22 10:32N 36°09' W 122°08'1010.2
2016-Aug-22 09:33N 36°00' W 122°02'1010.0
2016-Aug-22 08:34N 35°52' W 121°55'10 9.7
2016-Aug-22 07:34N 35°44' W 121°49'1010.0
2016-Aug-22 06:34N 35°35' W 121°43'10 9.6
2016-Aug-22 05:34N 35°27' W 121°37'9 9.4
2016-Aug-22 04:34N 35°19' W 121°31'10 9.7
2016-Aug-22 03:34N 35°11' W 121°24'8 7.9
2016-Aug-22 02:33N 35°04' W 121°19'5 5.5
2016-Aug-22 01:33N 34°59' W 121°16'5 5.4
2016-Aug-22 00:34N 34°54' W 121°13'814.7
2016-Aug-22 00:00N 34°48' W 121°06'3 6.8 350 / 121014.310.8 0.517.115.6
2016-Aug-21 23:33N 34°50' W 121°09'12 6.1
2016-Aug-21 21:31N 34°39' W 121°01'7 6.3
2016-Aug-21 20:28N 34°33' W 120°57'7 6.8
2016-Aug-21 19:29N 34°28' W 120°53'7 6.5
2016-Aug-21 18:22N 34°25' W 120°45'2 6.7
2016-Aug-21 18:00N 34°24' W 120°42'4 6.1 320 / 161015.010.8 0.517.015.3
2016-Aug-21 17:24N 34°23' W 120°38'5 6.0
2016-Aug-21 16:33N 34°22' W 120°32'6 6.1
2016-Aug-21 15:31N 34°20' W 120°25'8 8.1
2016-Aug-21 14:34N 34°18' W 120°15'10 9.7
2016-Aug-21 13:33N 34°16' W 120°04'10 9.5
2016-Aug-21 12:33N 34°13' W 119°53'9 8.6
2016-Aug-21 11:34N 34°11' W 119°43'9 9.5
2016-Aug-21 10:33N 34°08' W 119°32'10 9.7
2016-Aug-21 09:33N 34°05' W 119°21'10 9.8
2016-Aug-21 08:33N 34°02' W 119°10'9 9.4
2016-Aug-21 07:33N 33°57' W 118°60'9 9.3
2016-Aug-21 06:34N 33°52' W 118°50'9 8.9
2016-Aug-21 05:34N 33°48' W 118°41'9 9.2
2016-Aug-21 04:34N 33°43' W 118°31'10 9.8
2016-Aug-21 03:34N 33°38' W 118°21'7 7.3
2016-Aug-21 02:34N 33°39' W 118°13'6 6.0
2016-Aug-21 01:34N 33°45' W 118°13'1 1.2
2016-Aug-21 00:32N 33°46' W 118°14'0 0.0
2016-Aug-20 23:29N 33°46' W 118°14'0 0.0
2016-Aug-20 22:32N 33°46' W 118°14'0 0.0
2016-Aug-20 21:32N 33°46' W 118°14'0 0.0
2016-Aug-20 20:32N 33°46' W 118°14'0 0.0
2016-Aug-20 19:32N 33°46' W 118°14'0 0.0
2016-Aug-20 18:29N 33°46' W 118°14'0 0.0
2016-Aug-20 17:32N 33°46' W 118°14'0 0.0
2016-Aug-20 16:32N 33°46' W 118°14'0 0.0
2016-Aug-20 15:32N 33°46' W 118°14'0 0.0
2016-Aug-20 14:32N 33°46' W 118°14'0 0.0
2016-Aug-20 13:32N 33°46' W 118°14'0 0.0
2016-Aug-20 12:32N 33°46' W 118°14'0 0.0
2016-Aug-20 11:29N 33°46' W 118°14'0 0.0
2016-Aug-20 10:32N 33°46' W 118°14'0 0.0
2016-Aug-20 09:32N 33°46' W 118°14'0 0.0
2016-Aug-20 08:29N 33°46' W 118°14'0 0.2
2016-Aug-20 07:34N 33°46' W 118°14'6 5.7
2016-Aug-20 06:33N 33°41' W 118°11'9 8.6
2016-Aug-20 05:33N 33°36' W 118°19'1010.0
2016-Aug-20 04:33N 33°40' W 118°30'1010.4
2016-Aug-20 03:33N 33°46' W 118°41'1110.6
2016-Aug-20 02:33N 33°51' W 118°52'1111.2
2016-Aug-20 01:33N 33°56' W 119°04'1111.2
2016-Aug-20 00:33N 34°02' W 119°15'7 6.6
2016-Aug-19 23:29N 34°09' W 119°12'0 0.0
2016-Aug-19 22:23N 34°09' W 119°12'0 0.0
2016-Aug-19 20:08N 34°09' W 119°12'0 0.0
2016-Aug-19 19:29N 34°09' W 119°12'0 0.0
2016-Aug-19 10:20N 34°09' W 119°12'0 0.1
2016-Aug-19 09:23N 34°09' W 119°12'0 0.0
2016-Aug-19 08:32N 34°09' W 119°12'0 0.0
2016-Aug-19 07:17N 34°09' W 119°12'0 0.0
2016-Aug-19 06:29N 34°09' W 119°12'0 0.0
2016-Aug-19 05:32N 34°09' W 119°12'0 0.0
2016-Aug-19 04:29N 34°09' W 119°12'0 0.0
2016-Aug-19 01:11N 34°09' W 119°12'0 0.0
2016-Aug-19 00:23N 34°09' W 119°12'0 0.0
2016-Aug-18 23:29N 34°09' W 119°12'0 0.0
2016-Aug-18 22:11N 34°09' W 119°12'0 0.0
2016-Aug-18 20:08N 34°09' W 119°12'0 0.0
2016-Aug-18 19:32N 34°09' W 119°12'0 0.0
2016-Aug-18 18:23N 34°09' W 119°12'0 0.0
2016-Aug-18 17:23N 34°09' W 119°12'0 0.0
2016-Aug-18 16:33N 34°09' W 119°12'0 0.0
2016-Aug-18 15:32N 34°09' W 119°12'0 0.0
2016-Aug-18 14:23N 34°09' W 119°12'0 0.0
2016-Aug-18 13:29N 34°09' W 119°12'0 0.0
2016-Aug-18 11:23N 34°09' W 119°12'0 0.0
2016-Aug-18 10:26N 34°09' W 119°12'0 0.0
2016-Aug-18 09:29N 34°09' W 119°12'0 0.0
2016-Aug-18 08:29N 34°09' W 119°12'0 0.0
2016-Aug-18 07:32N 34°09' W 119°12'0 0.0
2016-Aug-18 06:26N 34°09' W 119°12'0 0.0
2016-Aug-18 05:32N 34°09' W 119°12'0 0.0
2016-Aug-18 04:23N 34°09' W 119°12'0 0.0
2016-Aug-18 03:26N 34°09' W 119°12'0 0.0
2016-Aug-18 02:33N 34°09' W 119°12'0 0.0
2016-Aug-18 01:26N 34°09' W 119°12'0 0.0
2016-Aug-18 00:32N 34°09' W 119°12'0 0.0
2016-Aug-17 23:32N 34°09' W 119°12'6 6.1
2016-Aug-17 22:33N 34°03' W 119°12'1313.2
2016-Aug-17 21:33N 33°56' W 118°58'1212.2
2016-Aug-17 20:33N 33°50' W 118°45'1211.8
2016-Aug-17 19:33N 33°44' W 118°33'1211.9
2016-Aug-17 18:33N 33°38' W 118°21'1110.8
2016-Aug-17 17:33N 33°34' W 118°09'1212.3
2016-Aug-17 16:33N 33°22' W 118°04'1212.1
2016-Aug-17 15:33N 33°11' W 117°59'9 8.9
2016-Aug-17 14:32N 33°03' W 117°54'1111.7
2016-Aug-17 13:34N 32°52' W 117°50'1413.7
2016-Aug-17 12:33N 32°39' W 117°44'1120.3
2016-Aug-17 12:00N 32°30' W 117°36'511.7 030 / 61011.610.8 0.519.718.4
2016-Aug-17 11:33N 32°26' W 117°40'1413.8
2016-Aug-17 10:33N 32°13' W 117°35'1413.9
2016-Aug-17 09:33N 32°00' W 117°29'1313.4
2016-Aug-17 08:33N 31°47' W 117°23'1313.4
2016-Aug-17 07:33N 31°35' W 117°18'1313.2
2016-Aug-17 06:33N 31°22' W 117°13'1221.1
2016-Aug-17 06:00N 31°12' W 117°06'3 6.3 010 / 81011.010.8 0.520.018.4
2016-Aug-17 05:33N 31°10' W 117°08'1312.7
2016-Aug-17 04:33N 30°58' W 117°03'1313.1
2016-Aug-17 03:33N 30°46' W 116°58'1313.5
2016-Aug-17 02:33N 30°33' W 116°52'1413.6
2016-Aug-17 01:33N 30°20' W 116°47'1313.4
2016-Aug-17 00:33N 30°08' W 116°42'1312.9
2016-Aug-16 23:33N 29°55' W 116°37'1313.1
2016-Aug-16 22:33N 29°43' W 116°32'7114.2
2016-Aug-16 17:33N 28°36' W 116°03'9115.2
2016-Aug-16 11:33N 27°16' W 115°14'17615.2
2016-Aug-16 00:00N 24°54' W 113°18'8914.9 100 / 41009.810.8 0.526.124.8
2016-Aug-15 18:00N 23°48' W 112°12'9716.2 340 / 81013.010.8 0.525.025.0
2016-Aug-15 12:00N 22°42' W 110°54'8714.4 330 / 121011.610.8 0.526.124.8
2016-Aug-15 06:00N 21°54' W 109°36'9015.1 050 / 141012.010.8 1.026.026.0
2016-Aug-15 00:00N 21°00' W 108°18'   320 / 121009.810.8 1.028.827.6

Dump ship's entire track history